Terminal Aerodrome Forecast
Issued by NWS Columbia, SC

Home | Current Version | Previous Version | Text Only | Print | Product List | Glossary On
Versions: 1 2 3 4 5 6 7 8 9 10 11 12 13 14 15 16 17 18 19 20 21 22 23 24 25 26 27 28 29 30 31 32 33 34
000
FTUS42 KCAE 172127 AAA
TAFCAE
TAF AMD
KCAE 172127Z 1721/1818 14009KT P6SM VCSH BKN035
     FM180000 20006KT P6SM BKN050
     FM180600 26004KT P6SM OVC035
     FM181300 04007KT P6SM SCT050 BKN250=

USA.gov is the U.S. government's official web portal to all federal, state and local government web resources and services.